Time;durP1;ratioP1;P1;durP2;ratioP2;P2;SDS_P1;SDS_P2;PMS_P1;PMS_P2;Temp;Humidity;BMP_temperature;BMP_pressure;BME280_temperature;BME280_humidity;BME280_pressure;Samples;Min_cycle;Max_cycle;Signal;HPM_P1;HPM_P2
2021/12/24 00:00:17;;;;;;;;;;;;;;;19.16;53.70;101273.88;5061450;28;2237;-40
2021/12/24 00:02:45;;;;;;;;;;;;;;;19.17;53.90;101271.06;5063069;28;1608;-40
2021/12/24 00:05:11;;;;;;;;;;;;;;;18.99;54.82;101254.63;5066581;28;1980;-40
2021/12/24 00:07:38;;;;;;;;;;;;;;;19.03;54.46;101250.75;5065603;28;1713;-40
2021/12/24 00:10:06;;;;;;;;;;;;;;;19.09;54.67;101244.03;5060387;28;1805;-40
2021/12/24 00:12:35;;;;;;;;;;;;;;;19.30;53.94;101236.06;5062436;28;1939;-40
2021/12/24 00:15:13;;;;;;;;;;;;;;;19.11;54.48;101231.34;5065187;28;1450;-40
2021/12/24 00:17:40;;;;;;;;;;;;;;;19.00;53.66;101223.31;5065633;28;1524;-40
2021/12/24 00:20:33;;;;;;;;;;;;;;;19.12;53.65;101227.72;5064183;28;1091;-40
2021/12/24 00:36:48;;;;;;;;;;;;;;;19.28;53.85;101219.25;5060942;28;1674;-40
2021/12/24 00:39:14;;;;;;;;;;;;;;;19.27;53.92;101220.22;5068536;28;1677;-40
2021/12/24 00:41:41;;;;;;;;;;;;;;;19.29;53.59;101212.91;5064829;28;1592;-40
2021/12/24 00:44:07;;;;;;;;;;;;;;;19.15;53.91;101202.47;5065924;28;1906;-40
2021/12/24 00:46:34;;;;;;;;;;;;;;;19.07;53.75;101198.56;5065344;28;1401;-41
2021/12/24 00:49:01;;;;;;;;;;;;;;;19.05;53.99;101183.59;5067309;28;2091;-40
2021/12/24 00:51:42;;;;;;;;;;;;;;;19.00;54.09;101202.75;5057711;28;1553;-40
2021/12/24 00:56:54;;;;;;;;;;;;;;;19.12;54.35;101170.53;5064152;28;1612;-40
2021/12/24 00:59:20;;;;;;;;;;;;;;;19.02;53.78;101163.28;5064201;28;1469;-40
2021/12/24 01:01:47;;;;;;;;;;;;;;;19.13;54.19;101169.56;5065792;28;1655;-40
2021/12/24 01:04:13;;;;;;;;;;;;;;;18.98;54.52;101167.19;5065665;28;1959;-40
2021/12/24 01:06:39;;;;;;;;;;;;;;;19.05;53.77;101144.25;5053045;28;1643;-40
2021/12/24 01:09:06;;;;;;;;;;;;;;;19.12;53.53;101149.97;5066705;28;1400;-40
2021/12/24 01:11:34;;;;;;;;;;;;;;;19.15;54.52;101136.28;5065349;28;1801;-40
2021/12/24 01:14:00;;;;;;;;;;;;;;;19.00;54.17;101119.66;5065417;28;1700;-40
2021/12/24 01:16:32;;;;;;;;;;;;;;;19.15;54.15;101125.56;5062357;28;1617;-41
2021/12/24 01:19:04;;;;;;;;;;;;;;;19.10;53.77;101113.53;5065784;28;1092;-40
2021/12/24 01:21:50;;;;;;;;;;;;;;;19.32;53.28;101112.56;5053695;28;1604;-40
2021/12/24 01:24:21;;;;;;;;;;;;;;;19.27;53.36;101110.28;5055406;28;1979;-40
2021/12/24 01:26:58;;;;;;;;;;;;;;;19.27;54.21;101107.63;5062899;28;1603;-40
2021/12/24 01:29:47;;;;;;;;;;;;;;;19.36;54.07;101103.28;5066690;28;1463;-40
2021/12/24 01:37:56;;;;;;;;;;;;;;;19.11;54.19;101099.16;5056648;28;1928;-40
2021/12/24 01:40:26;;;;;;;;;;;;;;;19.05;53.76;101092.47;5057083;28;1669;-40
2021/12/24 01:42:54;;;;;;;;;;;;;;;19.17;53.73;101099.50;5065459;28;1784;-40
2021/12/24 01:45:22;;;;;;;;;;;;;;;19.16;53.76;101095.13;5065243;28;1901;-40
2021/12/24 01:47:50;;;;;;;;;;;;;;;19.26;54.11;101096.03;5064703;28;1661;-39
2021/12/24 01:50:17;;;;;;;;;;;;;;;19.34;53.96;101075.75;5060542;28;1578;-40
2021/12/24 01:52:44;;;;;;;;;;;;;;;19.43;53.49;101070.47;5060335;28;1901;-40
2021/12/24 01:55:11;;;;;;;;;;;;;;;19.37;52.67;101073.66;5067633;28;2127;-40
2021/12/24 01:57:38;;;;;;;;;;;;;;;19.48;52.87;101078.13;5063311;28;1747;-40
2021/12/24 02:00:07;;;;;;;;;;;;;;;19.40;52.95;101075.25;5065034;28;1672;-40
2021/12/24 02:02:33;;;;;;;;;;;;;;;19.18;52.96;101070.84;5062015;28;1799;-40
2021/12/24 02:05:00;;;;;;;;;;;;;;;19.22;53.96;101066.94;5062556;28;1969;-40
2021/12/24 02:07:26;;;;;;;;;;;;;;;19.28;53.85;101064.59;5062264;28;1701;-40
2021/12/24 02:09:54;;;;;;;;;;;;;;;19.24;53.45;101059.63;5063942;28;1428;-40
2021/12/24 02:12:22;;;;;;;;;;;;;;;19.05;53.41;101054.94;5065073;28;1635;-40
2021/12/24 02:14:52;;;;;;;;;;;;;;;19.27;53.72;101062.03;5061612;28;1468;-40
2021/12/24 02:17:49;;;;;;;;;;;;;;;19.20;53.98;101064.38;5054836;28;1880;-40
2021/12/24 02:28:37;;;;;;;;;;;;;;;19.31;53.29;101041.19;5061947;28;1997;-40
2021/12/24 02:31:04;;;;;;;;;;;;;;;19.32;53.82;101034.81;5066392;28;1695;-40
2021/12/24 02:33:30;;;;;;;;;;;;;;;19.38;52.33;101034.31;5059329;28;1759;-40
2021/12/24 02:35:58;;;;;;;;;;;;;;;19.29;52.62;101035.94;5054925;28;1597;-40
2021/12/24 02:38:24;;;;;;;;;;;;;;;19.25;52.90;101029.13;5062278;28;1139;-40
2021/12/24 02:40:51;;;;;;;;;;;;;;;19.27;53.99;101035.22;5061939;28;1682;-40
2021/12/24 02:43:20;;;;;;;;;;;;;;;19.30;53.70;101032.28;5061846;28;1763;-40
2021/12/24 02:45:48;;;;;;;;;;;;;;;19.36;53.45;101014.78;5067355;28;1968;-40
2021/12/24 02:48:48;;;;;;;;;;;;;;;19.32;53.01;101003.50;5060039;28;1838;-40
2021/12/24 02:53:59;;;;;;;;;;;;;;;19.23;53.89;101005.13;5062454;28;1463;-41
2021/12/24 02:56:28;;;;;;;;;;;;;;;19.31;53.38;100999.13;5062927;28;1428;-40
2021/12/24 02:58:55;;;;;;;;;;;;;;;19.30;52.86;100999.25;5063988;28;1855;-41
2021/12/24 03:01:22;;;;;;;;;;;;;;;19.31;52.60;100987.53;5111587;23;3486;-88
2021/12/24 03:03:50;;;;;;;;;;;;;;;19.23;53.72;100982.84;4999672;28;1517;-87
2021/12/24 03:06:37;;;;;;;;;;;;;;;19.26;53.46;100998.69;4992383;28;1883;-87
2021/12/24 03:09:27;;;;;;;;;;;;;;;19.25;52.71;100991.59;4976829;28;1728;-84
2021/12/24 03:11:55;;;;;;;;;;;;;;;19.26;53.89;100974.53;4978940;28;1807;-86
2021/12/24 03:14:22;;;;;;;;;;;;;;;19.20;52.79;100978.59;4977247;28;999;-85
2021/12/24 03:16:58;;;;;;;;;;;;;;;19.22;53.07;100971.28;4976600;28;1795;-88
2021/12/24 03:19:28;;;;;;;;;;;;;;;19.15;53.47;100958.53;4987235;28;1285;-87
2021/12/24 03:22:00;;;;;;;;;;;;;;;19.20;52.96;100951.78;4986380;28;1003;-87
2021/12/24 03:24:36;;;;;;;;;;;;;;;19.17;53.38;100962.75;4984384;28;1910;-84
2021/12/24 03:27:05;;;;;;;;;;;;;;;19.23;53.48;100953.34;4990855;28;1082;-86
2021/12/24 03:29:32;;;;;;;;;;;;;;;18.96;54.31;100949.38;4981101;28;983;-87
2021/12/24 03:31:59;;;;;;;;;;;;;;;19.08;53.59;100958.22;4991317;28;1680;-85
2021/12/24 03:34:27;;;;;;;;;;;;;;;19.06;53.96;100954.81;4995072;28;1051;-85
2021/12/24 03:36:54;;;;;;;;;;;;;;;18.90;53.50;100952.59;4976496;28;1590;-87
2021/12/24 03:39:24;;;;;;;;;;;;;;;18.89;53.58;100945.50;4964626;28;1630;-89
2021/12/24 03:41:51;;;;;;;;;;;;;;;18.71;54.82;100934.50;4974705;28;1680;-85
2021/12/24 03:44:19;;;;;;;;;;;;;;;18.69;54.63;100931.09;4991885;28;1620;-88
2021/12/24 03:46:55;;;;;;;;;;;;;;;18.70;54.36;100927.44;4959825;28;1903;-85
2021/12/24 03:49:32;;;;;;;;;;;;;;;18.55;54.86;100926.91;4994530;28;1136;-89
2021/12/24 03:52:14;;;;;;;;;;;;;;;18.46;55.39;100924.97;4991983;28;1572;-86
2021/12/24 03:54:57;;;;;;;;;;;;;;;18.43;55.15;100923.41;4976618;28;1672;-89
2021/12/24 03:57:23;;;;;;;;;;;;;;;18.28;55.41;100917.53;4972884;28;1416;-85
2021/12/24 03:59:51;;;;;;;;;;;;;;;18.18;55.35;100918.41;4972360;28;1606;-86
2021/12/24 04:02:17;;;;;;;;;;;;;;;18.04;55.61;100920.38;4975100;28;1689;-84
2021/12/24 04:04:45;;;;;;;;;;;;;;;17.90;55.89;100917.97;4986841;28;1995;-87
2021/12/24 04:07:15;;;;;;;;;;;;;;;17.85;55.96;100921.03;4994987;28;1770;-88
2021/12/24 04:09:57;;;;;;;;;;;;;;;17.75;56.17;100919.22;4982857;28;1487;-90
2021/12/24 04:12:24;;;;;;;;;;;;;;;17.54;56.52;100911.06;4975118;28;1724;-89
2021/12/24 04:14:54;;;;;;;;;;;;;;;17.46;56.46;100903.66;4981555;28;1823;-90
2021/12/24 04:17:21;;;;;;;;;;;;;;;17.46;56.48;100915.19;4980761;28;1401;-85
2021/12/24 04:25:24;;;;;;;;;;;;;;;17.65;55.69;100908.41;4970151;28;1914;-89
2021/12/24 04:27:52;;;;;;;;;;;;;;;17.53;56.04;100893.31;4976068;28;1094;-84
2021/12/24 04:30:25;;;;;;;;;;;;;;;17.42;56.37;100889.66;4981760;28;1693;-86
2021/12/24 04:32:59;;;;;;;;;;;;;;;17.38;56.52;100885.53;4988405;28;971;-88
2021/12/24 04:35:39;;;;;;;;;;;;;;;17.35;56.84;100888.47;4994625;28;1669;-85
2021/12/24 04:51:57;;;;;;;;;;;;;;;17.08;56.97;100878.13;4999594;28;1486;-88
2021/12/24 05:05:22;;;;;;;;;;;;;;;16.91;57.52;100858.09;4986589;28;1906;-85
2021/12/24 05:08:14;;;;;;;;;;;;;;;16.87;58.25;100862.81;4973983;28;1327;-85
2021/12/24 05:10:44;;;;;;;;;;;;;;;16.89;57.23;100866.22;4979318;28;1630;-86
2021/12/24 05:13:23;;;;;;;;;;;;;;;16.89;58.14;100857.34;4992505;28;1732;-89
2021/12/24 05:15:57;;;;;;;;;;;;;;;16.81;57.07;100867.72;4982498;28;1782;-85
2021/12/24 05:18:47;;;;;;;;;;;;;;;16.65;58.48;100871.59;4979013;28;1559;-90
2021/12/24 05:24:05;;;;;;;;;;;;;;;16.50;57.70;100862.94;4986970;28;859;-89
2021/12/24 05:26:33;;;;;;;;;;;;;;;16.47;59.21;100860.50;4996640;28;1899;-86
2021/12/24 05:29:02;;;;;;;;;;;;;;;16.51;58.59;100866.44;4983177;28;1495;-86
2021/12/24 05:31:29;;;;;;;;;;;;;;;16.45;58.30;100856.25;4984916;28;1596;-85
2021/12/24 05:33:57;;;;;;;;;;;;;;;16.39;58.34;100868.22;4990117;28;1493;-85
2021/12/24 05:36:24;;;;;;;;;;;;;;;16.40;59.34;100874.44;4994917;28;1453;-90
2021/12/24 05:38:52;;;;;;;;;;;;;;;16.43;58.18;100879.53;4981447;28;1585;-85
2021/12/24 05:41:21;;;;;;;;;;;;;;;16.52;58.67;100876.16;4977488;28;1729;-88
2021/12/24 05:43:48;;;;;;;;;;;;;;;16.49;58.53;100844.34;4992586;28;1393;-89
2021/12/24 05:46:17;;;;;;;;;;;;;;;16.46;57.98;100845.44;4979921;28;1973;-85
2021/12/24 05:48:44;;;;;;;;;;;;;;;16.41;58.66;100844.09;4995558;28;1567;-85
2021/12/24 05:51:12;;;;;;;;;;;;;;;16.39;57.96;100848.69;4991457;28;1597;-85
2021/12/24 05:53:39;;;;;;;;;;;;;;;16.38;58.46;100834.50;4985421;28;1460;-84
2021/12/24 05:56:08;;;;;;;;;;;;;;;16.38;57.87;100820.31;4978124;28;1026;-84
2021/12/24 05:58:35;;;;;;;;;;;;;;;16.34;58.00;100825.03;4981108;28;1047;-84
2021/12/24 06:01:03;;;;;;;;;;;;;;;16.22;58.83;100837.50;4994757;28;1368;-87
2021/12/24 06:03:33;;;;;;;;;;;;;;;16.21;58.38;100834.94;4981384;28;1751;-87
2021/12/24 06:06:00;;;;;;;;;;;;;;;16.27;59.21;100856.69;4958969;28;1985;-90
2021/12/24 06:08:27;;;;;;;;;;;;;;;16.30;59.14;100837.75;4974043;28;1068;-86
2021/12/24 06:10:55;;;;;;;;;;;;;;;16.32;58.40;100847.47;4963404;28;978;-83
2021/12/24 06:13:25;;;;;;;;;;;;;;;16.29;58.02;100837.88;4996531;28;1759;-87
2021/12/24 06:15:53;;;;;;;;;;;;;;;16.27;58.58;100834.47;4980560;28;1940;-88
2021/12/24 06:18:24;;;;;;;;;;;;;;;16.23;58.85;100833.84;4975647;28;1740;-85
2021/12/24 06:20:53;;;;;;;;;;;;;;;16.23;59.27;100836.50;4969930;28;1681;-88
2021/12/24 06:23:27;;;;;;;;;;;;;;;16.19;58.16;100843.03;4987175;28;1082;-83
2021/12/24 06:25:55;;;;;;;;;;;;;;;16.17;58.46;100828.13;4984387;28;1973;-85
2021/12/24 06:28:22;;;;;;;;;;;;;;;16.25;58.14;100831.94;4975832;28;1788;-83
2021/12/24 06:30:50;;;;;;;;;;;;;;;16.23;58.88;100820.50;4974874;28;1274;-87
2021/12/24 06:33:17;;;;;;;;;;;;;;;16.24;59.21;100830.22;4977168;28;1071;-83
2021/12/24 06:35:47;;;;;;;;;;;;;;;16.49;57.99;100818.53;4987099;28;1691;-86
2021/12/24 06:38:15;;;;;;;;;;;;;;;16.94;57.83;100823.09;4983416;28;1183;-83
2021/12/24 06:40:41;;;;;;;;;;;;;;;17.39;58.43;100822.22;4985095;28;1436;-84
2021/12/24 06:43:11;;;;;;;;;;;;;;;17.39;58.94;100822.22;4963928;28;1438;-85
2021/12/24 06:45:38;;;;;;;;;;;;;;;17.58;58.44;100813.59;4963254;28;1984;-86
2021/12/24 06:48:11;;;;;;;;;;;;;;;17.88;58.47;100826.28;4972268;28;1541;-85
2021/12/24 06:50:38;;;;;;;;;;;;;;;18.22;57.49;100812.78;4976149;28;1411;-86
2021/12/24 06:53:11;;;;;;;;;;;;;;;18.63;57.61;100819.97;4971663;28;1218;-84
2021/12/24 06:55:40;;;;;;;;;;;;;;;18.61;56.89;100800.50;5004218;28;1226;-84
2021/12/24 06:58:09;;;;;;;;;;;;;;;18.71;56.98;100805.91;4975123;28;1760;-86
2021/12/24 07:00:36;;;;;;;;;;;;;;;18.80;57.07;100796.25;5032681;28;1578;-82
2021/12/24 07:03:02;;;;;;;;;;;;;;;18.73;56.47;100803.13;4984019;28;1522;-85
2021/12/24 07:05:29;;;;;;;;;;;;;;;18.64;57.20;100794.91;5008179;28;10920;-83
2021/12/24 07:07:56;;;;;;;;;;;;;;;19.24;58.75;100796.88;4979709;28;1360;-83
2021/12/24 07:10:26;;;;;;;;;;;;;;;19.33;56.59;100792.53;5013000;28;11065;-85
2021/12/24 07:13:11;;;;;;;;;;;;;;;19.43;55.69;100782.66;5087696;28;1589;-84
2021/12/24 07:15:46;;;;;;;;;;;;;;;19.06;57.47;100772.56;5070140;28;1359;-82
2021/12/24 07:18:14;;;;;;;;;;;;;;;18.51;58.22;100762.09;5080790;28;1464;-85
2021/12/24 07:20:41;;;;;;;;;;;;;;;18.16;58.55;100757.09;5070566;28;1624;-82
2021/12/24 07:23:14;;;;;;;;;;;;;;;17.85;60.07;100746.31;5080006;28;1649;-82
2021/12/24 07:25:43;;;;;;;;;;;;;;;17.62;60.35;100740.16;5072995;28;1993;-82
2021/12/24 07:28:18;;;;;;;;;;;;;;;17.48;60.70;100735.94;5071719;28;1309;-85
2021/12/24 07:30:52;;;;;;;;;;;;;;;17.35;61.71;100729.91;5077814;28;1527;-83
2021/12/24 07:33:20;;;;;;;;;;;;;;;17.28;61.75;100714.38;5075686;28;1261;-83
2021/12/24 07:35:50;;;;;;;;;;;;;;;17.33;61.42;100711.34;5066525;28;1473;-84
2021/12/24 07:38:30;;;;;;;;;;;;;;;17.70;60.49;100692.22;5067643;28;1377;-86
2021/12/24 07:40:56;;;;;;;;;;;;;;;17.89;59.62;100696.91;5069765;28;1356;-83
2021/12/24 07:43:26;;;;;;;;;;;;;;;18.16;58.81;100704.41;5070454;28;1712;-83
2021/12/24 07:46:02;;;;;;;;;;;;;;;17.93;59.42;100708.22;5067412;28;1906;-83
2021/12/24 07:48:31;;;;;;;;;;;;;;;18.08;58.94;100710.44;5062273;28;1063;-84
2021/12/24 07:53:43;;;;;;;;;;;;;;;18.14;59.36;100706.38;5072286;28;1377;-83
2021/12/24 07:56:10;;;;;;;;;;;;;;;17.94;59.50;100716.09;5070497;28;1419;-83
2021/12/24 07:58:39;;;;;;;;;;;;;;;18.27;58.75;100706.19;5066103;28;1190;-82
2021/12/24 08:01:06;;;;;;;;;;;;;;;18.53;57.95;100700.38;5069567;28;1541;-82
2021/12/24 08:03:34;;;;;;;;;;;;;;;18.63;57.34;100696.75;5032861;28;1230;-83
2021/12/24 08:06:06;;;;;;;;;;;;;;;19.02;56.10;100706.78;5022021;28;1902;-84
2021/12/24 08:08:36;;;;;;;;;;;;;;;18.68;57.29;100697.22;5027259;28;1375;-84
2021/12/24 08:11:09;;;;;;;;;;;;;;;18.52;57.80;100693.31;4985909;28;228378;-86
2021/12/24 08:13:36;;;;;;;;;;;;;;;18.42;57.58;100699.50;4985565;28;10738;-82
2021/12/24 08:16:04;;;;;;;;;;;;;;;18.61;57.14;100677.31;5037884;28;1788;-86
2021/12/24 08:18:33;;;;;;;;;;;;;;;18.65;57.32;100668.00;5030689;28;1457;-82
2021/12/24 08:20:59;;;;;;;;;;;;;;;18.98;56.10;100663.34;5046460;23;3818;-38
2021/12/24 08:23:26;;;;;;;;;;;;;;;18.52;57.65;100667.38;5066571;23;3638;-57
2021/12/24 08:25:58;;;;;;;;;;;;;;;18.43;58.49;100668.22;5056400;28;1901;-57
2021/12/24 08:28:24;;;;;;;;;;;;;;;18.37;58.54;100642.81;5056315;28;1641;-58
2021/12/24 08:30:51;;;;;;;;;;;;;;;18.48;58.19;100642.72;5053902;28;1441;-65
2021/12/24 08:33:19;;;;;;;;;;;;;;;18.85;58.08;100652.03;5056064;28;1415;-64
2021/12/24 08:35:45;;;;;;;;;;;;;;;18.94;57.80;100634.28;5057084;28;1430;-66
2021/12/24 08:38:12;;;;;;;;;;;;;;;19.05;58.02;100647.56;5060553;28;1677;-66
2021/12/24 08:40:39;;;;;;;;;;;;;;;19.12;57.67;100637.13;5060586;28;1362;-59
2021/12/24 08:43:05;;;;;;;;;;;;;;;19.19;57.86;100608.78;5059778;28;1350;-68
2021/12/24 08:45:32;;;;;;;;;;;;;;;19.57;56.17;100609.75;5059633;28;1407;-59
2021/12/24 08:47:58;;;;;;;;;;;;;;;19.43;56.11;100595.78;5052870;28;1910;-61
2021/12/24 08:50:26;;;;;;;;;;;;;;;19.51;56.03;100595.06;5055938;28;1339;-59
2021/12/24 08:52:53;;;;;;;;;;;;;;;19.77;56.37;100608.75;5059730;28;1422;-58
2021/12/24 08:55:19;;;;;;;;;;;;;;;19.93;56.07;100612.69;5057328;28;1442;-61
2021/12/24 08:57:46;;;;;;;;;;;;;;;19.91;56.32;100617.34;5058174;28;1364;-66
2021/12/24 09:00:14;;;;;;;;;;;;;;;19.89;56.39;100617.47;5059000;28;1872;-56
2021/12/24 09:02:41;;;;;;;;;;;;;;;19.96;55.81;100598.97;5060023;28;1549;-69
2021/12/24 09:05:08;;;;;;;;;;;;;;;20.02;55.56;100598.41;5056059;28;1388;-66
2021/12/24 09:07:36;;;;;;;;;;;;;;;19.98;55.79;100583.56;5056626;28;1913;-67
2021/12/24 09:10:03;;;;;;;;;;;;;;;19.71;57.06;100584.31;5055223;28;1446;-57
2021/12/24 09:12:30;;;;;;;;;;;;;;;19.63;56.03;100576.97;5059890;28;1199;-66
2021/12/24 09:14:57;;;;;;;;;;;;;;;18.97;56.49;100417.78;5060076;28;1430;-68
2021/12/24 09:17:24;;;;;;;;;;;;;;;19.64;56.90;100574.16;5054141;28;1669;-70
2021/12/24 09:19:52;;;;;;;;;;;;;;;19.66;56.18;100556.09;5059901;28;1277;-67
2021/12/24 09:22:21;;;;;;;;;;;;;;;19.55;56.00;100536.63;5060406;28;1375;-56
2021/12/24 09:24:50;;;;;;;;;;;;;;;19.15;56.71;100532.31;5059535;28;1414;-68
2021/12/24 09:27:17;;;;;;;;;;;;;;;18.98;55.93;100525.81;5059342;28;1979;-56
2021/12/24 09:29:43;;;;;;;;;;;;;;;18.99;56.63;100525.69;5057326;28;1704;-67
2021/12/24 09:32:10;;;;;;;;;;;;;;;19.15;56.33;100519.75;5056104;28;1629;-67
2021/12/24 09:34:37;;;;;;;;;;;;;;;19.20;55.33;100516.63;5055942;28;1680;-67
2021/12/24 09:37:04;;;;;;;;;;;;;;;19.22;55.39;100512.84;5055684;28;1490;-67
2021/12/24 09:39:31;;;;;;;;;;;;;;;19.14;55.62;100501.13;5057506;28;1274;-57
2021/12/24 09:42:00;;;;;;;;;;;;;;;19.12;55.91;100516.50;5058542;28;1348;-67
2021/12/24 09:44:27;;;;;;;;;;;;;;;19.20;55.30;100495.19;5059084;28;1411;-68
2021/12/24 10:18:12;;;;;;;;;;;;;;;18.99;56.78;100396.22;5886464;22;8022494;-40
2021/12/24 10:23:52;;;;;;;;;;;;;;;19.44;56.39;100399.03;6223405;23;1587;-40
2021/12/24 10:26:28;;;;;;;;;;;;;;;19.35;55.72;100404.44;6223423;23;1942;-40
2021/12/24 10:29:02;;;;;;;;;;;;;;;19.45;56.00;100397.19;6224162;23;1953;-40
2021/12/24 10:31:33;;;;;;;;;;;;;;;19.66;55.96;100391.63;6224276;23;1076;-39
2021/12/24 10:34:21;;;;;;;;;;;;;;;19.60;55.74;100389.53;6224155;23;1090;-39
2021/12/24 10:36:55;;;;;;;;;;;;;;;19.64;56.08;100382.88;6102695;23;1011;-39
2021/12/24 10:39:30;;;;;;;;;;;;;;;19.56;56.44;100374.72;6102057;23;1083;-39
2021/12/24 10:42:06;;;;;;;;;;;;;;;19.59;56.38;100371.72;6189048;23;1081;-40
2021/12/24 10:44:34;;;;;;;;;;;;;;;19.75;56.90;100357.69;6224510;23;1038;-40
2021/12/24 10:47:06;;;;;;;;;;;;;;;19.50;56.88;100351.16;6224090;23;1934;-39
2021/12/24 10:49:51;;;;;;;;;;;;;;;19.47;57.76;100341.59;6224133;23;2037;-40
2021/12/24 10:52:44;;;;;;;;;;;;;;;19.23;57.89;100344.78;6224474;23;994;-39
2021/12/24 10:55:21;;;;;;;;;;;;;;;18.88;59.30;100315.03;6224169;23;1115;-39
2021/12/24 10:58:01;;;;;;;;;;;;;;;19.10;58.07;100323.69;6224001;23;1117;-39
2021/12/24 11:00:32;;;;;;;;;;;;;;;19.14;57.75;100316.19;6224143;23;1046;-40
2021/12/24 11:03:00;;;;;;;;;;;;;;;19.41;57.21;100313.53;6223363;23;1034;-39
2021/12/24 11:05:31;;;;;;;;;;;;;;;19.08;58.90;100305.09;6224126;23;1896;-39
2021/12/24 11:08:00;;;;;;;;;;;;;;;18.99;58.90;100281.84;6223914;23;1566;-39
2021/12/24 11:10:27;;;;;;;;;;;;;;;18.91;59.19;100297.81;6223579;23;997;-40
2021/12/24 11:12:56;;;;;;;;;;;;;;;18.86;59.29;100290.22;6222673;23;982;-39
2021/12/24 11:15:27;;;;;;;;;;;;;;;18.85;59.23;100283.16;6221622;23;1042;-40
2021/12/24 11:17:55;;;;;;;;;;;;;;;19.05;57.13;100262.47;6217869;23;1176;-39
2021/12/24 11:20:22;;;;;;;;;;;;;;;19.50;57.21;100270.72;6216184;23;1091;-40
2021/12/24 11:22:50;;;;;;;;;;;;;;;19.41;57.02;100238.44;6216088;23;1088;-40
2021/12/24 11:25:16;;;;;;;;;;;;;;;19.33;57.91;100259.81;6216560;23;1938;-40
2021/12/24 11:27:43;;;;;;;;;;;;;;;19.24;57.18;100239.28;6216588;23;997;-39
2021/12/24 11:30:11;;;;;;;;;;;;;;;19.80;55.34;100235.53;6216426;23;1070;-40
2021/12/24 11:32:46;;;;;;;;;;;;;;;19.75;54.96;100245.03;6214488;23;1070;-40
2021/12/24 11:35:14;;;;;;;;;;;;;;;19.86;55.79;100251.00;6216952;23;1081;-40
2021/12/24 11:37:42;;;;;;;;;;;;;;;19.74;55.48;100262.97;6216200;23;1091;-40
2021/12/24 11:40:12;;;;;;;;;;;;;;;19.70;55.97;100263.41;6216762;23;1006;-40
2021/12/24 11:45:36;;;;;;;;;;;;;;;19.72;57.13;100256.06;6215649;23;1896;-40
2021/12/24 11:48:11;;;;;;;;;;;;;;;19.83;56.68;100272.75;6211887;23;1277;-40
2021/12/24 11:56:14;;;;;;;;;;;;;;;19.82;56.73;100255.00;6214982;23;1631;-40
2021/12/24 11:58:46;;;;;;;;;;;;;;;19.42;58.82;100258.91;6214674;23;998;-40
2021/12/24 12:01:16;;;;;;;;;;;;;;;19.46;58.46;100271.03;6216367;23;1207;-40
2021/12/24 12:03:51;;;;;;;;;;;;;;;19.64;58.52;100276.41;6216832;23;1167;-40
2021/12/24 12:06:39;;;;;;;;;;;;;;;19.58;58.73;100268.13;6214227;23;1919;-40
2021/12/24 12:09:10;;;;;;;;;;;;;;;19.54;59.69;100272.13;6204767;23;2405;-41
2021/12/24 12:11:39;;;;;;;;;;;;;;;19.37;58.97;100266.56;6216141;23;1081;-40
2021/12/24 12:14:07;;;;;;;;;;;;;;;19.38;59.61;100270.94;6214121;23;1070;-40
2021/12/24 12:16:48;;;;;;;;;;;;;;;19.34;59.27;100261.50;6215574;23;1157;-40
2021/12/24 12:19:22;;;;;;;;;;;;;;;19.22;59.89;100257.34;6215933;23;1089;-40
2021/12/24 12:22:17;;;;;;;;;;;;;;;19.14;59.97;100286.69;6215729;23;2028;-39
2021/12/24 12:27:29;;;;;;;;;;;;;;;19.11;59.60;100277.13;6215973;23;1942;-40
2021/12/24 12:29:55;;;;;;;;;;;;;;;19.26;60.75;100274.81;6213121;23;1069;-40
2021/12/24 12:32:27;;;;;;;;;;;;;;;19.19;59.97;100260.31;6214809;23;1130;-40
2021/12/24 12:34:59;;;;;;;;;;;;;;;19.15;60.27;100257.06;6215700;23;1250;-40
2021/12/24 12:37:26;;;;;;;;;;;;;;;19.12;60.81;100267.25;6215404;23;1068;-40
2021/12/24 12:39:54;;;;;;;;;;;;;;;19.08;60.96;100259.53;6215406;23;1084;-40
2021/12/24 12:42:23;;;;;;;;;;;;;;;19.27;61.12;100249.69;6216103;23;1074;-40
2021/12/24 12:44:52;;;;;;;;;;;;;;;19.29;60.25;100274.50;6215335;23;1006;-40
2021/12/24 12:47:19;;;;;;;;;;;;;;;19.33;61.44;100275.06;6215826;23;1940;-40
2021/12/24 12:49:45;;;;;;;;;;;;;;;19.27;61.12;100281.84;6216166;23;1101;-40
2021/12/24 12:52:21;;;;;;;;;;;;;;;19.17;61.58;100275.69;6215652;23;1051;-40
2021/12/24 12:54:48;;;;;;;;;;;;;;;19.15;62.24;100272.31;6216092;23;1057;-40
2021/12/24 12:57:20;;;;;;;;;;;;;;;19.18;62.06;100282.72;6215398;23;1059;-40
2021/12/24 13:00:04;;;;;;;;;;;;;;;19.42;61.98;100268.81;6215723;23;1121;-40
2021/12/24 13:02:46;;;;;;;;;;;;;;;19.41;61.35;100272.47;6215608;23;1153;-39
2021/12/24 13:05:14;;;;;;;;;;;;;;;19.44;61.96;100278.38;6214887;23;1413;-41
2021/12/24 13:07:49;;;;;;;;;;;;;;;19.24;62.44;100268.75;6214951;23;1900;-40
2021/12/24 13:10:18;;;;;;;;;;;;;;;19.15;62.79;100261.59;6215441;23;1130;-40
2021/12/24 13:13:05;;;;;;;;;;;;;;;19.22;63.24;100284.16;6215903;23;1049;-40
2021/12/24 13:15:43;;;;;;;;;;;;;;;19.21;63.10;100280.59;6215371;23;1283;-39
2021/12/24 13:18:25;;;;;;;;;;;;;;;19.18;62.99;100280.06;6215181;23;1218;-40
2021/12/24 13:23:41;;;;;;;;;;;;;;;19.18;63.80;100255.94;6164664;23;2624;-39
2021/12/24 13:26:20;;;;;;;;;;;;;;;19.12;62.96;100267.25;6215745;23;1900;-40
2021/12/24 13:28:57;;;;;;;;;;;;;;;19.13;62.96;100275.16;6215588;23;1076;-39
2021/12/24 13:31:24;;;;;;;;;;;;;;;19.10;62.90;100250.47;6216112;23;1053;-40
2021/12/24 13:33:56;;;;;;;;;;;;;;;19.27;63.09;100244.31;6215857;23;1138;-39
2021/12/24 13:36:26;;;;;;;;;;;;;;;19.60;63.14;100263.47;6216112;23;1015;-39
2021/12/24 13:39:06;;;;;;;;;;;;;;;19.74;61.43;100246.03;6215686;23;1017;-40
2021/12/24 13:41:36;;;;;;;;;;;;;;;19.71;62.87;100252.53;6215670;23;1061;-40
2021/12/24 13:44:26;;;;;;;;;;;;;;;19.83;62.11;100245.09;6215518;23;1058;-40
2021/12/24 13:47:17;;;;;;;;;;;;;;;19.77;61.80;100246.53;6214766;23;1948;-40
2021/12/24 13:50:22;;;;;;;;;;;;;;;19.55;63.74;100263.06;6215625;23;1080;-40
2021/12/24 13:55:51;;;;;;;;;;;;;;;19.38;63.78;100256.69;6215411;23;649;-41
2021/12/24 13:58:31;;;;;;;;;;;;;;;19.27;63.90;100242.47;6215592;23;1066;-40
2021/12/24 14:01:01;;;;;;;;;;;;;;;19.17;64.09;100227.47;6214864;23;1088;-40
2021/12/24 14:03:33;;;;;;;;;;;;;;;19.33;63.36;100232.16;6215685;23;990;-40
2021/12/24 14:06:11;;;;;;;;;;;;;;;19.35;64.04;100244.41;6215182;23;1942;-40
2021/12/24 14:08:40;;;;;;;;;;;;;;;19.19;63.79;100230.81;6215730;23;1014;-40
2021/12/24 14:11:25;;;;;;;;;;;;;;;19.04;63.67;100239.38;6214761;23;1157;-42
2021/12/24 14:14:05;;;;;;;;;;;;;;;19.20;63.58;100232.50;6215160;23;1219;-40
2021/12/24 14:16:40;;;;;;;;;;;;;;;19.27;62.39;100238.97;6215288;23;1094;-40
2021/12/24 14:19:09;;;;;;;;;;;;;;;19.27;63.23;100245.16;6215435;23;1246;-40
2021/12/24 14:21:50;;;;;;;;;;;;;;;19.18;63.42;100253.25;6213475;23;1114;-41
2021/12/24 14:24:20;;;;;;;;;;;;;;;19.23;62.92;100246.44;6214407;23;1021;-39
2021/12/24 14:29:58;;;;;;;;;;;;;;;19.30;63.09;100248.53;6214730;23;1615;-40
2021/12/24 14:32:31;;;;;;;;;;;;;;;19.12;63.90;100246.69;6215481;23;1074;-40
2021/12/24 14:35:02;;;;;;;;;;;;;;;19.15;62.65;100240.16;6214418;23;1060;-39
2021/12/24 14:37:32;;;;;;;;;;;;;;;19.00;62.80;100246.03;6215234;23;1037;-40
2021/12/24 14:40:03;;;;;;;;;;;;;;;19.03;63.51;100248.38;6215874;23;1021;-40
2021/12/24 14:42:46;;;;;;;;;;;;;;;18.94;63.96;100243.94;6215154;23;1092;-40
2021/12/24 14:45:34;;;;;;;;;;;;;;;19.06;62.80;100241.91;6215635;23;1064;-40
2021/12/24 14:48:13;;;;;;;;;;;;;;;19.18;63.27;100258.59;6215050;23;1932;-41
2021/12/24 14:50:56;;;;;;;;;;;;;;;19.08;63.58;100256.00;6215100;23;1973;-40
2021/12/24 14:53:36;;;;;;;;;;;;;;;19.13;63.35;100236.78;6216936;23;1023;-40
2021/12/24 14:56:05;;;;;;;;;;;;;;;18.93;63.60;100250.28;6216928;23;1117;-40
2021/12/24 15:01:20;;;;;;;;;;;;;;;19.30;62.89;100244.03;6217061;23;2596;-41
2021/12/24 15:03:56;;;;;;;;;;;;;;;19.20;63.49;100261.97;6216967;23;1051;-40
2021/12/24 15:06:45;;;;;;;;;;;;;;;19.20;63.41;100253.94;6217233;23;1897;-40
2021/12/24 15:09:29;;;;;;;;;;;;;;;19.01;63.65;100263.78;6216654;23;1216;-40
2021/12/24 15:11:58;;;;;;;;;;;;;;;19.08;62.88;100262.19;6216936;23;926;-40
2021/12/24 15:14:40;;;;;;;;;;;;;;;19.10;64.05;100242.44;6216959;23;1063;-40